createdAt,value
2022-10-16T00:01:39.301Z,57.63
2022-10-16T00:04:07.894Z,64.13
2022-10-16T00:06:37.784Z,49.57
2022-10-16T00:09:09.251Z,55.67
2022-10-16T00:11:40.648Z,60.43
2022-10-16T00:14:13.880Z,58.97
2022-10-16T00:16:48.016Z,54.63
2022-10-16T00:19:16.854Z,62.57
2022-10-16T00:21:46.594Z,55.40
2022-10-16T00:24:33.530Z,57.70
2022-10-16T00:27:02.017Z,61.90
2022-10-16T00:29:30.545Z,56.20
2022-10-16T00:31:59.385Z,56.60
2022-10-16T00:34:27.607Z,58.27
2022-10-16T00:36:57.390Z,60.97
2022-10-16T00:39:27.210Z,55.90
2022-10-16T00:41:55.498Z,58.87
2022-10-16T00:44:46.762Z,56.83
2022-10-16T00:47:18.274Z,55.80
2022-10-16T00:49:46.576Z,56.90
2022-10-16T00:52:16.995Z,50.43
2022-10-16T00:54:45.619Z,63.63
2022-10-16T00:59:43.985Z,57.80
2022-10-16T01:02:16.437Z,55.90
2022-10-16T01:04:47.649Z,51.50
2022-10-16T01:07:26.885Z,53.73
2022-10-16T01:10:03.514Z,48.40
2022-10-16T01:12:43.098Z,57.97
2022-10-16T01:15:20.231Z,52.53
2022-10-16T01:17:53.474Z,53.57
2022-10-16T01:20:26.788Z,50.50
2022-10-16T01:23:22.045Z,54.97
2022-10-16T01:26:03.675Z,49.70
2022-10-16T01:28:36.972Z,57.40
2022-10-16T01:31:05.486Z,45.30
2022-10-16T01:33:38.305Z,57.37
2022-10-16T01:36:13.147Z,53.60
2022-10-16T01:38:42.427Z,50.40
2022-10-16T01:41:12.972Z,55.20
2022-10-16T01:43:44.963Z,49.13
2022-10-16T01:46:15.577Z,51.40
2022-10-16T01:48:43.970Z,47.73
2022-10-16T01:51:15.359Z,52.30
2022-10-16T01:53:45.217Z,50.10
2022-10-16T01:56:14.748Z,45.17
2022-10-16T01:58:47.287Z,49.90
2022-10-16T02:01:18.040Z,50.73
2022-10-16T02:03:47.410Z,54.63
2022-10-16T02:06:15.738Z,50.50
2022-10-16T02:08:45.155Z,52.00
2022-10-16T02:11:13.811Z,45.13
2022-10-16T02:13:47.130Z,48.70
2022-10-16T02:16:16.645Z,49.33
2022-10-16T02:18:45.570Z,50.80
2022-10-16T02:21:18.445Z,56.97
2022-10-16T02:23:53.618Z,50.03
2022-10-16T02:26:28.728Z,50.00
2022-10-16T02:29:03.037Z,48.30
2022-10-16T02:31:35.237Z,49.90
2022-10-16T02:34:06.048Z,53.00
2022-10-16T02:36:35.124Z,51.43
2022-10-16T02:39:04.899Z,54.80
2022-10-16T02:41:33.436Z,52.53
2022-10-16T02:44:03.155Z,56.30
2022-10-16T02:46:31.516Z,51.17
2022-10-16T02:48:59.856Z,58.30
2022-10-16T02:51:28.201Z,72.57
2022-10-16T02:53:56.642Z,119.03
2022-10-16T02:56:24.990Z,67.07
2022-10-16T02:58:53.257Z,62.27
2022-10-16T03:01:23.471Z,102.80
2022-10-16T03:03:51.888Z,69.80
2022-10-16T03:06:20.290Z,59.70
2022-10-16T03:08:48.642Z,76.23
2022-10-16T03:11:19.015Z,92.63
2022-10-16T03:13:47.853Z,102.10
2022-10-16T03:16:16.372Z,168.93
2022-10-16T03:18:46.166Z,121.60
2022-10-16T03:21:16.558Z,58.90
2022-10-16T03:23:47.738Z,62.03
2022-10-16T03:26:16.955Z,66.10
2022-10-16T03:28:45.430Z,53.60
2022-10-16T03:31:13.889Z,53.07
2022-10-16T03:33:42.538Z,49.97
2022-10-16T03:36:13.974Z,54.87
2022-10-16T03:38:42.323Z,56.20
2022-10-16T03:41:10.808Z,49.70
2022-10-16T03:43:39.252Z,55.87
2022-10-16T03:46:07.628Z,53.73
2022-10-16T03:48:36.040Z,56.13
2022-10-16T03:51:04.456Z,50.43
2022-10-16T03:53:34.411Z,58.10
2022-10-16T03:56:02.744Z,51.93
2022-10-16T03:58:31.143Z,52.03
2022-10-16T04:00:59.554Z,54.27
2022-10-16T04:03:27.907Z,46.87
2022-10-16T04:05:56.270Z,51.00
2022-10-16T04:08:27.494Z,56.13
2022-10-16T04:10:57.273Z,46.87
2022-10-16T04:13:25.771Z,46.83
2022-10-16T04:15:55.407Z,41.27
2022-10-16T04:18:24.633Z,47.07
2022-10-16T04:20:53.193Z,43.87
2022-10-16T04:23:21.652Z,46.17
2022-10-16T04:25:50.242Z,45.97
2022-10-16T04:28:20.083Z,43.33
2022-10-16T04:30:48.905Z,52.00
2022-10-16T04:33:17.397Z,42.93
2022-10-16T04:35:46.335Z,51.53
2022-10-16T04:38:14.762Z,52.10
2022-10-16T04:40:44.319Z,53.73
2022-10-16T04:43:13.479Z,53.23
2022-10-16T04:45:43.265Z,47.03
2022-10-16T04:48:11.752Z,46.80
2022-10-16T04:50:46.000Z,46.50
2022-10-16T04:53:14.724Z,52.47
2022-10-16T04:55:43.861Z,52.10
2022-10-16T04:58:12.639Z,54.67
2022-10-16T05:00:43.081Z,51.63
2022-10-16T05:03:11.889Z,51.33
2022-10-16T05:05:45.097Z,84.67
2022-10-16T05:08:14.348Z,61.33
2022-10-16T05:10:47.274Z,84.40
2022-10-16T05:13:18.637Z,71.97
2022-10-16T05:15:51.081Z,56.87
2022-10-16T05:18:19.887Z,85.80
2022-10-16T05:20:52.932Z,78.87
2022-10-16T05:23:29.146Z,64.13
2022-10-16T05:26:12.032Z,61.43
2022-10-16T05:28:49.586Z,47.10
2022-10-16T05:31:25.005Z,53.23
2022-10-16T05:34:00.723Z,45.87
2022-10-16T05:36:30.552Z,39.60
2022-10-16T05:38:59.023Z,47.07
2022-10-16T05:41:27.865Z,54.23
2022-10-16T05:44:02.858Z,42.33
2022-10-16T05:46:33.214Z,38.47
2022-10-16T05:49:01.717Z,39.50
2022-10-16T05:51:32.384Z,44.07
2022-10-16T05:54:00.934Z,50.13
2022-10-16T05:56:29.781Z,55.57
2022-10-16T05:59:06.913Z,40.67
2022-10-16T06:01:45.275Z,47.90
2022-10-16T06:04:13.784Z,46.83
2022-10-16T06:06:42.280Z,83.50
2022-10-16T06:09:11.622Z,39.80
2022-10-16T06:11:40.151Z,34.50
2022-10-16T06:14:08.818Z,34.13
2022-10-16T06:17:02.867Z,34.90
2022-10-16T06:19:32.582Z,55.23
2022-10-16T06:22:01.318Z,70.70
2022-10-16T06:24:29.704Z,62.00
2022-10-16T06:27:02.146Z,42.20
2022-10-16T06:29:30.720Z,50.83
2022-10-16T06:32:00.506Z,54.93
2022-10-16T06:34:30.800Z,48.47
2022-10-16T06:37:00.368Z,50.63
2022-10-16T06:39:31.180Z,54.67
2022-10-16T06:42:01.992Z,40.90
2022-10-16T06:47:41.300Z,44.70
2022-10-16T06:50:20.226Z,35.87
2022-10-16T06:52:48.818Z,45.27
2022-10-16T06:55:18.160Z,39.47
2022-10-16T06:57:49.230Z,42.50
2022-10-16T07:00:18.131Z,41.60
2022-10-16T07:02:50.628Z,49.37
2022-10-16T07:05:20.444Z,45.40
2022-10-16T07:07:56.198Z,46.73
2022-10-16T07:10:25.337Z,45.33
2022-10-16T07:12:56.148Z,39.53
2022-10-16T07:15:25.534Z,46.83
2022-10-16T07:17:55.370Z,50.43
2022-10-16T07:20:23.818Z,44.43
2022-10-16T07:22:52.211Z,51.17
2022-10-16T07:25:20.692Z,48.23
2022-10-16T07:27:49.091Z,53.80
2022-10-16T07:30:17.551Z,51.37
2022-10-16T07:32:45.893Z,50.87
2022-10-16T07:35:15.978Z,49.30
2022-10-16T07:37:47.083Z,49.13
2022-10-16T07:40:15.616Z,51.17
2022-10-16T07:42:43.953Z,55.93
2022-10-16T07:45:12.632Z,56.13
2022-10-16T07:47:50.317Z,63.37
2022-10-16T08:14:47.000Z,33.97
2022-10-16T08:17:16.890Z,33.13
2022-10-16T08:19:47.230Z,33.83
2022-10-16T08:22:16.418Z,30.93
2022-10-16T08:24:44.579Z,28.23
2022-10-16T08:27:12.977Z,31.40
2022-10-16T08:29:41.284Z,34.57
2022-10-16T08:32:11.017Z,31.47
2022-10-16T08:34:39.330Z,31.37
2022-10-16T08:37:12.313Z,30.90
2022-10-16T08:39:40.937Z,27.83
2022-10-16T08:42:16.131Z,30.80
2022-10-16T08:45:17.774Z,28.40
2022-10-16T08:48:16.815Z,32.60
2022-10-16T08:51:01.230Z,34.13
2022-10-16T08:57:12.130Z,30.93
2022-10-16T09:05:12.554Z,26.90
2022-10-16T09:08:24.371Z,26.17
2022-10-16T09:11:03.798Z,25.90
2022-10-16T09:13:48.870Z,25.43
2022-10-16T09:16:33.057Z,29.00
2022-10-16T09:19:36.670Z,24.90
2022-10-16T09:23:04.946Z,26.23
2022-10-16T09:32:35.117Z,24.70
2022-10-16T09:35:03.823Z,25.23
2022-10-16T09:41:41.431Z,22.67
2022-10-16T09:44:34.014Z,22.83
2022-10-16T09:47:08.523Z,24.27
2022-10-16T09:49:36.831Z,22.90
2022-10-16T09:52:06.495Z,24.03
2022-10-16T09:54:34.744Z,21.50
2022-10-16T09:57:15.002Z,21.17
2022-10-16T09:59:48.940Z,23.30
2022-10-16T10:02:18.692Z,21.10
2022-10-16T10:04:51.328Z,22.03
2022-10-16T10:07:21.365Z,21.50
2022-10-16T10:09:51.264Z,21.67
2022-10-16T10:12:26.114Z,20.97
2022-10-16T10:14:56.605Z,21.70
2022-10-16T10:17:26.906Z,22.33
2022-10-16T10:19:57.273Z,20.13
2022-10-16T10:22:29.747Z,19.33
2022-10-16T10:25:00.028Z,20.57
2022-10-16T10:27:35.282Z,21.73
2022-10-16T10:30:05.684Z,21.63
2022-10-16T10:32:41.487Z,19.83
2022-10-16T10:35:17.236Z,19.10
2022-10-16T10:38:04.702Z,20.67
2022-10-16T10:40:42.853Z,19.87
2022-10-16T10:43:21.047Z,19.10
2022-10-16T10:45:50.776Z,18.73
2022-10-16T10:50:59.395Z,18.50
2022-10-16T10:53:39.942Z,16.80
2022-10-16T10:56:17.228Z,18.57
2022-10-16T10:59:04.812Z,18.27
2022-10-16T11:01:44.355Z,19.17
2022-10-16T11:04:38.077Z,19.40
2022-10-16T11:07:07.842Z,18.13
2022-10-16T11:09:39.203Z,19.90
2022-10-16T11:12:09.576Z,17.50
2022-10-16T11:14:44.235Z,19.40
2022-10-16T11:17:14.953Z,17.10
2022-10-16T11:19:49.056Z,15.73
2022-10-16T11:22:22.655Z,16.07
2022-10-16T11:24:54.191Z,15.23
2022-10-16T11:27:39.724Z,16.63
2022-10-16T11:30:16.852Z,15.00
2022-10-16T11:33:08.466Z,14.50
2022-10-16T11:35:44.207Z,15.30
2022-10-16T11:38:19.685Z,15.00
2022-10-16T11:40:51.287Z,16.37
2022-10-16T11:43:24.519Z,15.50
2022-10-16T11:45:56.762Z,13.90
2022-10-16T11:48:30.067Z,13.03
2022-10-16T11:51:02.921Z,13.70
2022-10-16T11:53:41.689Z,13.77
2022-10-16T11:56:15.300Z,13.97
2022-10-16T11:58:54.690Z,15.13
2022-10-16T12:01:31.494Z,14.83
2022-10-16T12:04:07.484Z,13.13
2022-10-16T12:06:42.334Z,14.10
2022-10-16T12:09:18.514Z,13.97
2022-10-16T12:11:53.747Z,13.10
2022-10-16T12:15:11.322Z,12.43
2022-10-16T12:17:41.887Z,13.10
2022-10-16T12:20:24.747Z,13.93
2022-10-16T12:22:57.521Z,14.03
2022-10-16T12:25:29.688Z,15.57
2022-10-16T12:28:00.417Z,15.90
2022-10-16T12:30:33.709Z,15.37
2022-10-16T12:33:17.322Z,14.97
2022-10-16T12:35:46.886Z,14.43
2022-10-16T12:38:19.345Z,15.70
2022-10-16T12:40:50.729Z,18.13
2022-10-16T12:43:40.582Z,15.23
2022-10-16T12:46:25.400Z,14.90
2022-10-16T12:49:06.353Z,15.30
2022-10-16T12:51:38.183Z,16.43
2022-10-16T12:54:14.576Z,15.37
2022-10-16T12:56:58.791Z,15.67
2022-10-16T12:59:37.479Z,16.00
2022-10-16T13:02:25.791Z,14.30
2022-10-16T13:05:15.921Z,16.47
2022-10-16T13:07:58.352Z,14.87
2022-10-16T13:10:31.240Z,15.10
2022-10-16T13:13:14.500Z,14.93
2022-10-16T13:15:51.887Z,14.27
2022-10-16T13:18:25.487Z,13.10
2022-10-16T13:21:17.187Z,13.00
2022-10-16T13:23:52.321Z,12.63
2022-10-16T13:26:29.018Z,14.97
2022-10-16T13:29:04.819Z,12.80
2022-10-16T13:31:35.261Z,17.40
2022-10-16T13:34:03.970Z,12.73
2022-10-16T13:36:44.430Z,12.63
2022-10-16T13:39:18.125Z,15.70
2022-10-16T13:41:47.033Z,14.73
2022-10-16T13:44:18.266Z,16.57
2022-10-16T13:46:46.922Z,14.70
2022-10-16T13:49:17.300Z,14.30
2022-10-16T13:54:38.850Z,15.60
2022-10-16T13:57:22.833Z,14.53
2022-10-16T13:59:55.253Z,14.80
2022-10-16T14:02:28.811Z,13.57
2022-10-16T14:04:58.682Z,15.03
2022-10-16T14:07:28.729Z,13.73
2022-10-16T14:10:01.745Z,14.20
2022-10-16T14:12:30.518Z,12.27
2022-10-16T14:15:01.614Z,13.67
2022-10-16T14:17:32.517Z,13.83
2022-10-16T14:20:06.405Z,14.10
2022-10-16T14:22:37.374Z,15.97
2022-10-16T14:25:23.007Z,14.10
2022-10-16T14:30:35.795Z,16.03
2022-10-16T14:33:06.087Z,14.13
2022-10-16T14:35:36.942Z,14.43
2022-10-16T14:38:06.757Z,15.37
2022-10-16T14:40:38.779Z,15.07
2022-10-16T14:43:07.932Z,16.80
2022-10-16T14:45:39.785Z,26.40
2022-10-16T14:48:19.975Z,16.40
2022-10-16T14:50:51.000Z,17.93
2022-10-16T14:53:20.059Z,17.33
2022-10-16T14:55:55.225Z,17.60
2022-10-16T14:58:24.610Z,17.33
2022-10-16T15:00:52.962Z,17.73
2022-10-16T15:03:21.260Z,18.83
2022-10-16T15:05:49.596Z,24.00
2022-10-16T15:08:23.044Z,24.37
2022-10-16T15:10:53.731Z,24.23
2022-10-16T15:13:22.184Z,21.97
2022-10-16T15:15:51.527Z,23.67
2022-10-16T15:18:21.473Z,20.03
2022-10-16T15:20:51.817Z,22.23
2022-10-16T15:23:21.629Z,21.47
2022-10-16T15:25:51.959Z,20.43
2022-10-16T15:28:25.090Z,23.50
2022-10-16T15:30:54.665Z,25.10
2022-10-16T15:33:24.963Z,25.60
2022-10-16T15:35:53.864Z,26.60
2022-10-16T15:38:23.435Z,25.33
2022-10-16T15:40:52.246Z,25.03
2022-10-16T15:43:22.094Z,25.40
2022-10-16T15:46:01.225Z,24.00
2022-10-16T15:48:30.511Z,24.83
2022-10-16T15:50:59.015Z,27.60
2022-10-16T15:53:27.340Z,24.47
2022-10-16T15:55:55.640Z,25.80
2022-10-16T15:58:25.423Z,23.90
2022-10-16T16:00:58.388Z,27.10
2022-10-16T16:03:26.905Z,25.50
2022-10-16T16:05:55.326Z,26.87
2022-10-16T16:08:24.498Z,31.50
2022-10-16T16:11:00.975Z,28.27
2022-10-16T16:13:30.818Z,27.20
2022-10-16T16:15:59.405Z,29.73
2022-10-16T16:18:28.047Z,25.37
2022-10-16T16:20:56.749Z,26.57
2022-10-16T16:23:26.111Z,26.00
2022-10-16T16:26:08.778Z,25.60
2022-10-16T16:28:39.698Z,26.93
2022-10-16T16:31:08.836Z,28.80
2022-10-16T16:33:44.588Z,29.47
2022-10-16T16:36:15.894Z,29.23
2022-10-16T16:38:44.839Z,27.00
2022-10-16T16:41:17.162Z,30.23
2022-10-16T16:43:48.392Z,28.00
2022-10-16T16:46:17.912Z,33.30
2022-10-16T16:48:47.474Z,31.27
2022-10-16T16:51:19.321Z,28.10
2022-10-16T16:53:49.898Z,35.90
2022-10-16T16:56:20.613Z,26.33
2022-10-16T16:58:57.770Z,29.10
2022-10-16T17:01:32.522Z,29.83
2022-10-16T17:04:03.742Z,37.33
2022-10-16T17:06:33.225Z,30.00
2022-10-16T17:09:06.719Z,31.23
2022-10-16T17:11:40.427Z,30.33
2022-10-16T17:14:11.545Z,31.97
2022-10-16T17:16:44.741Z,40.20
2022-10-16T17:19:17.544Z,34.63
2022-10-16T17:21:49.817Z,34.33
2022-10-16T17:24:21.732Z,39.27
2022-10-16T17:26:52.245Z,31.90
2022-10-16T17:29:26.264Z,35.40
2022-10-16T17:31:56.390Z,39.63
2022-10-16T17:34:29.347Z,33.57
2022-10-16T17:37:00.969Z,39.63
2022-10-16T17:39:32.656Z,36.57
2022-10-16T17:42:06.915Z,35.27
2022-10-16T17:44:41.367Z,42.90
2022-10-16T17:47:13.469Z,35.70
2022-10-16T17:49:43.789Z,36.63
2022-10-16T17:52:14.960Z,37.07
2022-10-16T17:54:46.654Z,42.77
2022-10-16T17:57:17.623Z,35.93
2022-10-16T17:59:50.500Z,39.73
2022-10-16T18:02:21.689Z,34.60
2022-10-16T18:04:54.435Z,37.47
2022-10-16T18:07:27.588Z,37.87
2022-10-16T18:10:10.287Z,38.17
2022-10-16T18:12:43.139Z,33.50
2022-10-16T18:15:18.923Z,37.70
2022-10-16T18:17:50.759Z,44.60
2022-10-16T18:20:24.953Z,38.30
2022-10-16T18:22:56.081Z,40.50
2022-10-16T18:25:26.514Z,40.53
2022-10-16T18:27:57.831Z,35.60
2022-10-16T18:30:31.498Z,37.80
2022-10-16T18:33:14.721Z,49.60
2022-10-16T18:35:45.595Z,39.60
2022-10-16T18:38:18.709Z,39.43
2022-10-16T18:40:54.725Z,41.17
2022-10-16T18:46:19.093Z,38.63
2022-10-16T18:48:54.670Z,41.10
2022-10-16T18:51:53.871Z,37.30
2022-10-16T18:54:29.829Z,40.17
2022-10-16T18:57:12.431Z,42.53
2022-10-16T18:59:45.378Z,40.67
2022-10-16T19:02:40.957Z,40.93
2022-10-16T19:05:17.069Z,42.20
2022-10-16T19:10:34.042Z,42.43
2022-10-16T19:13:12.959Z,37.93
2022-10-16T19:15:58.287Z,38.40
2022-10-16T19:18:42.903Z,33.00
2022-10-16T19:21:18.567Z,40.10
2022-10-16T19:23:49.490Z,46.30
2022-10-16T19:26:21.949Z,41.60
2022-10-16T19:28:56.242Z,36.23
2022-10-16T19:31:28.870Z,43.90
2022-10-16T19:34:00.701Z,43.97
2022-10-16T19:36:38.893Z,40.90
2022-10-16T19:39:12.872Z,36.53
2022-10-16T19:41:45.683Z,40.20
2022-10-16T19:44:20.639Z,42.03
2022-10-16T19:46:52.011Z,39.07
2022-10-16T19:49:33.690Z,42.37
2022-10-16T19:52:02.943Z,42.63
2022-10-16T19:54:31.764Z,43.00
2022-10-16T19:57:00.721Z,41.93
2022-10-16T19:59:29.907Z,44.80
2022-10-16T20:01:59.016Z,47.30
2022-10-16T20:04:29.677Z,46.13
2022-10-16T20:06:58.611Z,38.37
2022-10-16T20:09:28.151Z,45.63
2022-10-16T20:11:58.206Z,49.13
2022-10-16T20:14:27.039Z,44.37
2022-10-16T20:16:56.349Z,44.07
2022-10-16T20:19:25.072Z,44.30
2022-10-16T20:21:57.055Z,44.50
2022-10-16T20:24:25.714Z,42.87
2022-10-16T20:26:56.620Z,42.30
2022-10-16T20:29:26.869Z,42.27
2022-10-16T20:31:55.361Z,40.40
2022-10-16T20:34:26.582Z,42.83
2022-10-16T20:36:56.532Z,45.50
2022-10-16T20:39:25.055Z,46.63
2022-10-16T20:41:53.550Z,46.10
2022-10-16T20:44:22.160Z,43.30
2022-10-16T20:46:50.988Z,47.57
2022-10-16T20:49:35.902Z,43.43
2022-10-16T20:52:09.867Z,40.43
2022-10-16T20:54:44.751Z,42.87
2022-10-16T20:57:16.468Z,44.93
2022-10-16T20:59:45.212Z,41.20
2022-10-16T21:02:14.444Z,41.90
2022-10-16T21:04:43.041Z,43.70
2022-10-16T21:07:14.474Z,43.10
2022-10-16T21:09:45.570Z,42.50
2022-10-16T21:12:14.001Z,38.13
2022-10-16T21:15:02.468Z,48.20
2022-10-16T21:17:32.438Z,39.60
2022-10-16T21:20:00.854Z,44.93
2022-10-16T21:22:32.082Z,45.63
2022-10-16T21:25:00.452Z,44.37
2022-10-16T21:27:28.921Z,42.83
2022-10-16T21:29:57.242Z,45.87
2022-10-16T21:32:26.322Z,44.70
2022-10-16T21:34:54.823Z,45.13
2022-10-16T21:37:23.280Z,46.47
2022-10-16T21:39:53.238Z,42.20
2022-10-16T21:42:21.718Z,49.27
2022-10-16T21:44:50.037Z,54.33
2022-10-16T21:47:18.457Z,48.97
2022-10-16T21:49:46.839Z,44.67
2022-10-16T21:52:15.435Z,49.27
2022-10-16T21:54:43.716Z,45.03
2022-10-16T21:57:13.717Z,49.27
2022-10-16T21:59:42.236Z,48.93
2022-10-16T22:02:10.516Z,43.97
2022-10-16T22:04:38.897Z,52.43
2022-10-16T22:07:10.313Z,46.77
2022-10-16T22:09:38.591Z,47.47
2022-10-16T22:12:07.264Z,51.90
2022-10-16T22:14:37.062Z,45.70
2022-10-16T22:17:06.182Z,44.20
2022-10-16T22:19:34.540Z,41.50
2022-10-16T22:22:02.906Z,46.27
2022-10-16T22:27:01.910Z,46.63
2022-10-16T22:29:30.174Z,48.27
2022-10-16T22:31:59.816Z,44.33
2022-10-16T22:34:29.663Z,45.63
2022-10-16T22:36:58.032Z,46.17
2022-10-16T22:39:28.271Z,45.83
2022-10-16T22:41:57.167Z,47.53
2022-10-16T22:44:26.336Z,50.30
2022-10-16T22:46:54.653Z,50.87
2022-10-16T22:49:24.386Z,47.23
2022-10-16T22:51:52.668Z,49.93
2022-10-16T22:54:20.940Z,42.47
2022-10-16T22:56:49.330Z,45.27
2022-10-16T22:59:18.005Z,46.73
2022-10-16T23:01:46.685Z,49.30
2022-10-16T23:04:15.105Z,46.83
2022-10-16T23:06:44.927Z,44.67
2022-10-16T23:09:13.358Z,43.60
2022-10-16T23:11:41.709Z,46.40
2022-10-16T23:14:10.036Z,50.57
2022-10-16T23:16:38.362Z,49.80
2022-10-16T23:19:06.750Z,41.93
2022-10-16T23:21:35.635Z,45.80
2022-10-16T23:24:05.988Z,45.23
2022-10-16T23:26:36.171Z,44.50
2022-10-16T23:29:04.714Z,43.87
2022-10-16T23:31:32.999Z,52.93
2022-10-16T23:34:02.046Z,50.10
2022-10-16T23:36:30.394Z,45.90
2022-10-16T23:38:58.681Z,51.13
2022-10-16T23:41:28.482Z,44.70
2022-10-16T23:43:56.853Z,51.13
2022-10-16T23:48:58.362Z,44.20
2022-10-16T23:51:26.641Z,46.27
2022-10-16T23:53:54.992Z,52.47
2022-10-16T23:56:23.221Z,47.37
2022-10-16T23:58:52.916Z,43.67
